Lower Peach Tree, Alabama
Current Conditions -  °F | °C
As of 2:53 PM on Monday 22 Dec 2014 (Local Time) from KGZH Reporting Station
Overcast Overcast  
Wind Chill: 63°   Ceiling: 700
Heat Index: 63°   Visibility: 10mi
Dew Point: 59°   Wind: 7mph
Humidity: 87%   Direction: 110°ESE
Pressure: 29.8"   Gusts: NA
Location:  31.84°N, 87.55°W
Report Text: KGZH 222053Z AUTO 11006KT 10SM OVC007 17/15 A2980 RMK AO2 RAE03 SLP088 P0000 60001 T01720150 56012
Loading
Personal Weather Stations






























Interactive Weather Map New forecast layout! Learn more

10-Day Weather Forecast

Advertisements
Track Severe Weather on mobile